sensor_id;sensor_type;location;lat;lon;timestamp;pressure;altitude;pressure_sealevel;temperature;humidity
8717;BME280;4395;48.554;8.820;2023-05-11T00:00:18;95693.31;;;11.39;100.00
8717;BME280;4395;48.554;8.820;2023-05-11T00:02:22;95704.63;;;11.41;100.00
8717;BME280;4395;48.554;8.820;2023-05-11T00:04:25;95706.22;;;11.42;100.00
8717;BME280;4395;48.554;8.820;2023-05-11T00:06:28;95708.66;;;11.43;100.00
8717;BME280;4395;48.554;8.820;2023-05-11T00:08:31;95703.81;;;11.45;100.00
8717;BME280;4395;48.554;8.820;2023-05-11T00:10:33;95701.94;;;11.46;100.00
8717;BME280;4395;48.554;8.820;2023-05-11T00:12:36;95656.34;;;11.14;100.00
8717;BME280;4395;48.554;8.820;2023-05-11T00:14:39;95699.53;;;11.44;100.00
8717;BME280;4395;48.554;8.820;2023-05-11T00:16:42;95709.47;;;11.44;100.00
8717;BME280;4395;48.554;8.820;2023-05-11T00:18:46;95704.91;;;11.44;100.00
8717;BME280;4395;48.554;8.820;2023-05-11T00:20:49;95701.41;;;11.44;100.00
8717;BME280;4395;48.554;8.820;2023-05-11T00:22:52;95695.47;;;11.42;100.00
8717;BME280;4395;48.554;8.820;2023-05-11T00:24:55;95704.63;;;11.41;100.00
8717;BME280;4395;48.554;8.820;2023-05-11T00:26:58;95699.53;;;11.44;100.00
8717;BME280;4395;48.554;8.820;2023-05-11T00:29:01;95700.31;;;11.45;100.00
8717;BME280;4395;48.554;8.820;2023-05-11T00:31:04;95694.94;;;11.45;100.00
8717;BME280;4395;48.554;8.820;2023-05-11T00:33:07;95695.47;;;11.42;100.00
8717;BME280;4395;48.554;8.820;2023-05-11T00:35:11;95637.47;;;11.04;100.00
8717;BME280;4395;48.554;8.820;2023-05-11T00:37:14;95686.31;;;11.43;100.00
8717;BME280;4395;48.554;8.820;2023-05-11T00:39:17;95700.31;;;11.45;100.00
8717;BME280;4395;48.554;8.820;2023-05-11T00:41:19;95693.59;;;11.42;100.00
8717;BME280;4395;48.554;8.820;2023-05-11T00:43:23;95691.94;;;11.36;100.00
8717;BME280;4395;48.554;8.820;2023-05-11T00:45:26;95691.69;;;11.38;100.00
8717;BME280;4395;48.554;8.820;2023-05-11T00:47:29;95686.84;;;11.40;100.00
8717;BME280;4395;48.554;8.820;2023-05-11T00:49:32;95643.66;;;11.09;100.00
8717;BME280;4395;48.554;8.820;2023-05-11T00:51:37;95676.31;;;11.33;100.00
8717;BME280;4395;48.554;8.820;2023-05-11T00:53:40;95678.22;;;11.33;100.00
8717;BME280;4395;48.554;8.820;2023-05-11T00:55:43;95675.53;;;11.33;100.00
8717;BME280;4395;48.554;8.820;2023-05-11T00:57:46;95684.66;;;11.32;100.00
8717;BME280;4395;48.554;8.820;2023-05-11T00:59:50;95639.06;;;11.05;100.00
8717;BME280;4395;48.554;8.820;2023-05-11T01:01:54;95673.09;;;11.31;100.00
8717;BME280;4395;48.554;8.820;2023-05-11T01:03:57;95681.44;;;11.30;100.00
8717;BME280;4395;48.554;8.820;2023-05-11T01:06:04;95676.03;;;11.30;100.00
8717;BME280;4395;48.554;8.820;2023-05-11T01:08:14;95676.03;;;11.30;100.00
8717;BME280;4395;48.554;8.820;2023-05-11T01:10:23;95679.28;;;11.32;100.00
8717;BME280;4395;48.554;8.820;2023-05-11T01:12:32;95681.16;;;11.31;100.00
8717;BME280;4395;48.554;8.820;2023-05-11T01:14:43;95638.25;;;11.04;100.00
8717;BME280;4395;48.554;8.820;2023-05-11T01:16:55;95674.69;;;11.27;100.00
8717;BME280;4395;48.554;8.820;2023-05-11T01:19:01;95664.97;;;11.21;100.00
8717;BME280;4395;48.554;8.820;2023-05-11T01:21:08;95679.78;;;11.23;100.00
8717;BME280;4395;48.554;8.820;2023-05-11T01:23:42;95676.28;;;11.23;100.00
8717;BME280;4395;48.554;8.820;2023-05-11T01:26:00;95662.25;;;11.16;100.00
8717;BME280;4395;48.554;8.820;2023-05-11T01:28:25;95680.84;;;11.22;100.00
8717;BME280;4395;48.554;8.820;2023-05-11T01:30:35;95673.84;;;11.21;100.00
8717;BME280;4395;48.554;8.820;2023-05-11T01:32:43;95668.19;;;11.18;100.00
8717;BME280;4395;48.554;8.820;2023-05-11T01:34:47;95679.75;;;11.18;100.00
8717;BME280;4395;48.554;8.820;2023-05-11T01:36:54;95674.38;;;11.18;100.00
8717;BME280;4395;48.554;8.820;2023-05-11T01:39:02;95661.94;;;11.07;100.00
8717;BME280;4395;48.554;8.820;2023-05-11T01:41:10;95680.03;;;11.22;100.00
8717;BME280;4395;48.554;8.820;2023-05-11T01:43:19;95681.91;;;11.21;100.00
8717;BME280;4395;48.554;8.820;2023-05-11T01:45:23;95606.84;;;10.62;100.00
8717;BME280;4395;48.554;8.820;2023-05-11T01:47:29;95669.00;;;11.18;100.00
8717;BME280;4395;48.554;8.820;2023-05-11T01:49:36;95669.00;;;11.18;100.00
8717;BME280;4395;48.554;8.820;2023-05-11T01:51:41;95669.53;;;11.20;100.00
8717;BME280;4395;48.554;8.820;2023-05-11T01:53:45;95676.00;;;11.19;100.00
8717;BME280;4395;48.554;8.820;2023-05-11T01:55:51;95644.41;;;10.94;100.00
8717;BME280;4395;48.554;8.820;2023-05-11T01:57:55;95678.69;;;11.19;100.00
8717;BME280;4395;48.554;8.820;2023-05-11T01:59:58;95677.59;;;11.20;100.00
8717;BME280;4395;48.554;8.820;2023-05-11T02:02:03;95680.81;;;11.17;100.00
8717;BME280;4395;48.554;8.820;2023-05-11T02:04:08;95681.91;;;11.16;100.00
8717;BME280;4395;48.554;8.820;2023-05-11T02:06:13;95626.78;;;10.72;100.00
8717;BME280;4395;48.554;8.820;2023-05-11T02:08:17;95675.97;;;11.14;100.00
8717;BME280;4395;48.554;8.820;2023-05-11T02:10:24;95685.38;;;11.12;100.00
8717;BME280;4395;48.554;8.820;2023-05-11T02:12:28;95677.25;;;11.07;100.00
8717;BME280;4395;48.554;8.820;2023-05-11T02:14:35;95682.69;;;11.12;100.00
8717;BME280;4395;48.554;8.820;2023-05-11T02:16:39;95678.06;;;11.07;100.00
8717;BME280;4395;48.554;8.820;2023-05-11T02:18:43;95684.78;;;11.05;100.00
8717;BME280;4395;48.554;8.820;2023-05-11T02:20:48;95658.34;;;10.91;100.00
8717;BME280;4395;48.554;8.820;2023-05-11T02:22:53;95660.25;;;10.91;100.00
8717;BME280;4395;48.554;8.820;2023-05-11T02:24:57;95684.56;;;11.11;100.00
8717;BME280;4395;48.554;8.820;2023-05-11T02:27:00;95683.47;;;11.12;100.00
8717;BME280;4395;48.554;8.820;2023-05-11T02:29:03;95678.66;;;11.14;100.00
8717;BME280;4395;48.554;8.820;2023-05-11T02:31:09;95677.59;;;11.15;100.00
8717;BME280;4395;48.554;8.820;2023-05-11T02:33:19;95686.16;;;11.12;100.00
8717;BME280;4395;48.554;8.820;2023-05-11T02:35:24;95682.41;;;11.13;100.00
8717;BME280;4395;48.554;8.820;2023-05-11T02:37:32;95684.03;;;11.14;100.00
8717;BME280;4395;48.554;8.820;2023-05-11T02:39:37;95677.25;;;11.07;100.00
8717;BME280;4395;48.554;8.820;2023-05-11T02:41:43;95679.19;;;11.11;100.00
8717;BME280;4395;48.554;8.820;2023-05-11T02:43:50;95678.88;;;11.08;100.00
8717;BME280;4395;48.554;8.820;2023-05-11T02:45:58;95682.50;;;10.81;100.00
8717;BME280;4395;48.554;8.820;2023-05-11T02:48:06;95674.69;;;10.80;100.00
8717;BME280;4395;48.554;8.820;2023-05-11T02:50:11;95685.97;;;10.77;100.00
8717;BME280;4395;48.554;8.820;2023-05-11T02:52:17;95672.00;;;10.80;100.00
8717;BME280;4395;48.554;8.820;2023-05-11T02:54:22;95679.81;;;10.81;100.00
8717;BME280;4395;48.554;8.820;2023-05-11T03:00:14;95673.00;;;10.69;100.00
8717;BME280;4395;48.554;8.820;2023-05-11T03:02:20;95676.28;;;10.76;100.00
8717;BME280;4395;48.554;8.820;2023-05-11T03:04:23;95673.66;;;10.49;100.00
8717;BME280;4395;48.554;8.820;2023-05-11T03:06:27;95672.69;;;10.65;100.00
8717;BME280;4395;48.554;8.820;2023-05-11T03:08:30;95668.75;;;10.78;100.00
8717;BME280;4395;48.554;8.820;2023-05-11T03:10:35;95668.78;;;10.83;100.00
8717;BME280;4395;48.554;8.820;2023-05-11T03:12:38;95663.16;;;10.84;100.00
8717;BME280;4395;48.554;8.820;2023-05-11T03:14:43;95670.72;;;10.92;100.00
8717;BME280;4395;48.554;8.820;2023-05-11T03:16:46;95666.69;;;10.90;100.00
8717;BME280;4395;48.554;8.820;2023-05-11T03:18:52;95648.34;;;10.82;100.00
8717;BME280;4395;48.554;8.820;2023-05-11T03:20:58;95661.03;;;10.91;100.00
8717;BME280;4395;48.554;8.820;2023-05-11T03:23:04;95666.19;;;10.98;100.00
8717;BME280;4395;48.554;8.820;2023-05-11T03:25:08;95661.06;;;10.97;100.00
8717;BME280;4395;48.554;8.820;2023-05-11T03:27:14;95667.78;;;10.94;100.00
8717;BME280;4395;48.554;8.820;2023-05-11T03:29:18;95665.63;;;10.91;100.00
8717;BME280;4395;48.554;8.820;2023-05-11T03:31:22;95673.69;;;10.91;100.00
8717;BME280;4395;48.554;8.820;2023-05-11T03:33:25;95661.59;;;10.93;100.00
8717;BME280;4395;48.554;8.820;2023-05-11T03:35:30;95557.41;;;10.26;100.00
8717;BME280;4395;48.554;8.820;2023-05-11T03:37:36;95661.81;;;10.87;100.00
8717;BME280;4395;48.554;8.820;2023-05-11T03:39:43;95654.56;;;10.87;100.00
8717;BME280;4395;48.554;8.820;2023-05-11T03:41:49;95658.88;;;10.88;100.00
8717;BME280;4395;48.554;8.820;2023-05-11T03:43:56;95665.06;;;10.89;100.00
8717;BME280;4395;48.554;8.820;2023-05-11T03:46:02;95668.84;;;10.93;100.00
8717;BME280;4395;48.554;8.820;2023-05-11T03:48:07;95644.06;;;10.86;100.00
8717;BME280;4395;48.554;8.820;2023-05-11T03:50:12;95657.47;;;10.76;100.00
8717;BME280;4395;48.554;8.820;2023-05-11T03:52:17;95649.97;;;10.83;100.00
8717;BME280;4395;48.554;8.820;2023-05-11T03:54:21;95648.94;;;10.89;100.00
8717;BME280;4395;48.554;8.820;2023-05-11T03:56:25;95656.47;;;10.92;100.00
8717;BME280;4395;48.554;8.820;2023-05-11T03:58:29;95648.88;;;10.79;100.00
8717;BME280;4395;48.554;8.820;2023-05-11T04:00:36;95652.13;;;10.86;100.00
8717;BME280;4395;48.554;8.820;2023-05-11T04:02:39;95650.97;;;10.72;100.00
8717;BME280;4395;48.554;8.820;2023-05-11T04:04:45;95614.28;;;10.50;100.00
8717;BME280;4395;48.554;8.820;2023-05-11T04:06:48;95657.75;;;10.79;100.00
8717;BME280;4395;48.554;8.820;2023-05-11T04:08:56;95606.91;;;10.36;100.00
8717;BME280;4395;48.554;8.820;2023-05-11T04:10:58;95639.91;;;10.63;100.00
8717;BME280;4395;48.554;8.820;2023-05-11T04:13:02;95643.94;;;10.66;100.00
8717;BME280;4395;48.554;8.820;2023-05-11T04:15:06;95639.94;;;10.68;100.00
8717;BME280;4395;48.554;8.820;2023-05-11T04:17:10;95652.53;;;10.62;100.00
8717;BME280;4395;48.554;8.820;2023-05-11T04:19:13;95649.03;;;10.62;100.00
8717;BME280;4395;48.554;8.820;2023-05-11T04:21:17;95647.19;;;10.68;100.00
8717;BME280;4395;48.554;8.820;2023-05-11T04:23:21;95648.00;;;10.68;100.00
8717;BME280;4395;48.554;8.820;2023-05-11T04:25:24;95649.41;;;10.76;100.00
8717;BME280;4395;48.554;8.820;2023-05-11T04:27:31;95651.03;;;10.82;100.00
8717;BME280;4395;48.554;8.820;2023-05-11T04:29:34;95651.63;;;10.89;100.00
8717;BME280;4395;48.554;8.820;2023-05-11T04:31:37;95654.34;;;10.94;100.00
8717;BME280;4395;48.554;8.820;2023-05-11T04:33:42;95564.22;;;10.39;100.00
8717;BME280;4395;48.554;8.820;2023-05-11T04:35:48;95650.59;;;11.00;100.00
8717;BME280;4395;48.554;8.820;2023-05-11T04:37:51;95662.88;;;10.81;100.00
8717;BME280;4395;48.554;8.820;2023-05-11T04:39:55;95632.66;;;10.63;100.00
8717;BME280;4395;48.554;8.820;2023-05-11T04:41:58;95658.41;;;10.59;100.00
8717;BME280;4395;48.554;8.820;2023-05-11T04:44:03;95655.22;;;10.62;100.00
8717;BME280;4395;48.554;8.820;2023-05-11T04:46:06;95658.81;;;10.78;100.00
8717;BME280;4395;48.554;8.820;2023-05-11T04:48:09;95614.38;;;10.66;100.00
8717;BME280;4395;48.554;8.820;2023-05-11T04:50:14;95655.06;;;10.79;100.00
8717;BME280;4395;48.554;8.820;2023-05-11T04:52:18;95661.59;;;10.93;100.00
8717;BME280;4395;48.554;8.820;2023-05-11T04:54:23;95655.47;;;11.03;100.00
8717;BME280;4395;48.554;8.820;2023-05-11T04:56:26;95660.56;;;11.00;100.00
8717;BME280;4395;48.554;8.820;2023-05-11T04:58:29;95661.66;;;11.04;100.00
8717;BME280;4395;48.554;8.820;2023-05-11T05:00:32;95657.66;;;11.11;100.00
8717;BME280;4395;48.554;8.820;2023-05-11T05:02:37;95661.09;;;11.02;100.00
8717;BME280;4395;48.554;8.820;2023-05-11T05:04:40;95663.22;;;10.94;100.00
8717;BME280;4395;48.554;8.820;2023-05-11T05:06:44;95605.56;;;10.70;100.00
8717;BME280;4395;48.554;8.820;2023-05-11T05:08:49;95663.56;;;11.08;100.00
8717;BME280;4395;48.554;8.820;2023-05-11T05:10:53;95663.00;;;11.06;100.00
8717;BME280;4395;48.554;8.820;2023-05-11T05:12:57;95660.88;;;11.08;100.00
8717;BME280;4395;48.554;8.820;2023-05-11T05:15:00;95665.13;;;10.99;100.00
8717;BME280;4395;48.554;8.820;2023-05-11T05:17:04;95662.22;;;11.11;100.00
8717;BME280;4395;48.554;8.820;2023-05-11T05:19:07;95660.63;;;11.10;100.00
8717;BME280;4395;48.554;8.820;2023-05-11T05:21:14;95668.47;;;11.21;100.00
8717;BME280;4395;48.554;8.820;2023-05-11T05:23:20;95666.88;;;11.25;100.00
8717;BME280;4395;48.554;8.820;2023-05-11T05:25:23;95569.19;;;10.57;100.00
8717;BME280;4395;48.554;8.820;2023-05-11T05:27:26;95659.63;;;11.26;100.00
8717;BME280;4395;48.554;8.820;2023-05-11T05:29:30;95666.16;;;10.93;100.00
8717;BME280;4395;48.554;8.820;2023-05-11T05:31:34;95665.94;;;11.00;100.00
8717;BME280;4395;48.554;8.820;2023-05-11T05:33:37;95664.94;;;11.16;100.00
8717;BME280;4395;48.554;8.820;2023-05-11T05:35:40;95670.78;;;11.03;100.00
8717;BME280;4395;48.554;8.820;2023-05-11T05:37:45;95658.75;;;11.15;100.00
8717;BME280;4395;48.554;8.820;2023-05-11T05:39:50;95668.66;;;11.05;100.00
8717;BME280;4395;48.554;8.820;2023-05-11T05:41:53;95665.50;;;11.18;100.00
8717;BME280;4395;48.554;8.820;2023-05-11T05:43:58;95671.66;;;11.13;100.00
8717;BME280;4395;48.554;8.820;2023-05-11T05:46:01;95670.63;;;11.24;100.00
8717;BME280;4395;48.554;8.820;2023-05-11T05:48:05;95662.63;;;11.40;100.00
8717;BME280;4395;48.554;8.820;2023-05-11T05:50:08;95649.09;;;11.19;100.00
8717;BME280;4395;48.554;8.820;2023-05-11T05:52:14;95663.44;;;11.40;100.00
8717;BME280;4395;48.554;8.820;2023-05-11T05:54:20;95676.31;;;11.33;100.00
8717;BME280;4395;48.554;8.820;2023-05-11T05:56:24;95672.81;;;11.33;100.00
8717;BME280;4395;48.554;8.820;2023-05-11T05:58:28;95672.25;;;11.25;100.00
8717;BME280;4395;48.554;8.820;2023-05-11T06:00:31;95668.47;;;11.21;100.00
8717;BME280;4395;48.554;8.820;2023-05-11T06:02:38;95660.44;;;11.32;100.00
8717;BME280;4395;48.554;8.820;2023-05-11T06:04:46;95669.09;;;11.44;100.00
8717;BME280;4395;48.554;8.820;2023-05-11T06:06:49;95679.66;;;11.55;100.00
8717;BME280;4395;48.554;8.820;2023-05-11T06:08:52;95664.00;;;11.42;100.00
8717;BME280;4395;48.554;8.820;2023-05-11T06:10:55;95675.25;;;11.34;100.00
8717;BME280;4395;48.554;8.820;2023-05-11T06:13:00;95670.28;;;11.06;100.00
8717;BME280;4395;48.554;8.820;2023-05-11T06:15:03;95645.28;;;11.10;100.00
8717;BME280;4395;48.554;8.820;2023-05-11T06:17:10;95682.63;;;11.59;100.00
8717;BME280;4395;48.554;8.820;2023-05-11T06:19:13;95684.28;;;11.75;100.00
8717;BME280;4395;48.554;8.820;2023-05-11T06:21:16;95679.69;;;11.71;100.00
8717;BME280;4395;48.554;8.820;2023-05-11T06:23:19;95676.69;;;11.57;100.00
8717;BME280;4395;48.554;8.820;2023-05-11T06:25:22;95678.06;;;11.65;100.00
8717;BME280;4395;48.554;8.820;2023-05-11T06:27:25;95674.03;;;11.62;100.00
8717;BME280;4395;48.554;8.820;2023-05-11T06:29:32;95677.03;;;11.76;100.00
8717;BME280;4395;48.554;8.820;2023-05-11T06:31:37;95684.91;;;11.87;100.00
8717;BME280;4395;48.554;8.820;2023-05-11T06:33:41;95673.31;;;11.92;100.00
8717;BME280;4395;48.554;8.820;2023-05-11T06:35:53;95677.34;;;11.84;100.00
8717;BME280;4395;48.554;8.820;2023-05-11T06:37:56;95633.34;;;11.48;100.00
8717;BME280;4395;48.554;8.820;2023-05-11T06:39:59;95676.25;;;11.80;100.00
8717;BME280;4395;48.554;8.820;2023-05-11T06:42:03;95672.25;;;11.88;100.00
8717;BME280;4395;48.554;8.820;2023-05-11T06:44:08;95656.69;;;11.33;100.00
8717;BME280;4395;48.554;8.820;2023-05-11T06:46:13;95681.03;;;11.68;100.00
8717;BME280;4395;48.554;8.820;2023-05-11T06:48:18;95681.13;;;11.88;100.00
8717;BME280;4395;48.554;8.820;2023-05-11T06:50:24;95673.50;;;11.65;100.00
8717;BME280;4395;48.554;8.820;2023-05-11T06:52:28;95665.44;;;11.70;100.00
8717;BME280;4395;48.554;8.820;2023-05-11T06:54:34;95676.97;;;11.60;100.00
8717;BME280;4395;48.554;8.820;2023-05-11T06:56:37;95677.34;;;11.84;100.00
8717;BME280;4395;48.554;8.820;2023-05-11T06:58:42;95665.81;;;12.14;100.00
8717;BME280;4395;48.554;8.820;2023-05-11T07:00:45;95672.78;;;11.85;100.00
8717;BME280;4395;48.554;8.820;2023-05-11T07:02:49;95676.88;;;12.13;100.00
8717;BME280;4395;48.554;8.820;2023-05-11T07:04:53;95673.13;;;12.24;100.00
8717;BME280;4395;48.554;8.820;2023-05-11T07:06:56;95679.56;;;12.23;100.00
8717;BME280;4395;48.554;8.820;2023-05-11T07:08:59;95675.53;;;12.36;100.00
8717;BME280;4395;48.554;8.820;2023-05-11T07:11:04;95685.53;;;12.55;100.00
8717;BME280;4395;48.554;8.820;2023-05-11T07:13:07;95676.91;;;12.59;100.00
8717;BME280;4395;48.554;8.820;2023-05-11T07:15:10;95681.22;;;12.44;100.00
8717;BME280;4395;48.554;8.820;2023-05-11T07:17:13;95682.03;;;12.45;100.00
8717;BME280;4395;48.554;8.820;2023-05-11T07:19:18;95683.09;;;12.59;100.00
8717;BME280;4395;48.554;8.820;2023-05-11T07:21:21;95677.41;;;12.81;100.00
8717;BME280;4395;48.554;8.820;2023-05-11T07:23:24;95676.88;;;12.94;100.00
8717;BME280;4395;48.554;8.820;2023-05-11T07:25:27;95681.22;;;12.54;100.00
8717;BME280;4395;48.554;8.820;2023-05-11T07:27:30;95687.13;;;12.62;100.00
8717;BME280;4395;48.554;8.820;2023-05-11T07:29:33;95688.72;;;12.12;100.00
8717;BME280;4395;48.554;8.820;2023-05-11T07:31:36;95688.75;;;12.42;100.00
8717;BME280;4395;48.554;8.820;2023-05-11T07:33:40;95689.81;;;13.07;100.00
8717;BME280;4395;48.554;8.820;2023-05-11T07:35:44;95691.44;;;13.13;100.00
8717;BME280;4395;48.554;8.820;2023-05-11T07:37:47;95686.56;;;13.15;100.00
8717;BME280;4395;48.554;8.820;2023-05-11T07:39:51;95689.28;;;13.00;100.00
8717;BME280;4395;48.554;8.820;2023-05-11T07:41:55;95688.47;;;12.79;100.00
8717;BME280;4395;48.554;8.820;2023-05-11T07:43:59;95665.56;;;12.56;100.00
8717;BME280;4395;48.554;8.820;2023-05-11T07:46:03;95688.22;;;12.76;100.00
8717;BME280;4395;48.554;8.820;2023-05-11T07:48:06;95682.03;;;12.60;100.00
8717;BME280;4395;48.554;8.820;2023-05-11T07:50:10;95688.22;;;12.66;100.00
8717;BME280;4395;48.554;8.820;2023-05-11T07:52:14;95681.19;;;12.85;100.00
8717;BME280;4395;48.554;8.820;2023-05-11T07:54:18;95687.13;;;12.87;100.00
8717;BME280;4395;48.554;8.820;2023-05-11T07:56:22;95684.97;;;12.94;100.00
8717;BME280;4395;48.554;8.820;2023-05-11T07:58:25;95683.34;;;12.98;100.00
8717;BME280;4395;48.554;8.820;2023-05-11T08:00:29;95680.94;;;13.02;100.00
8717;BME280;4395;48.554;8.820;2023-05-11T08:02:32;95673.09;;;13.10;100.00
8717;BME280;4395;48.554;8.820;2023-05-11T08:04:35;95679.03;;;13.07;100.00
8717;BME280;4395;48.554;8.820;2023-05-11T08:06:39;95680.66;;;13.08;100.00
8717;BME280;4395;48.554;8.820;2023-05-11T08:08:43;95687.94;;;12.72;100.00
8717;BME280;4395;48.554;8.820;2023-05-11T08:10:47;95670.69;;;12.83;100.00
8717;BME280;4395;48.554;8.820;2023-05-11T08:12:50;95686.56;;;13.15;100.00
8717;BME280;4395;48.554;8.820;2023-05-11T08:14:53;95680.34;;;13.30;100.00
8717;BME280;4395;48.554;8.820;2023-05-11T08:16:57;95683.88;;;13.10;100.00
8717;BME280;4395;48.554;8.820;2023-05-11T08:19:00;95686.06;;;12.78;100.00
8717;BME280;4395;48.554;8.820;2023-05-11T08:21:04;95678.22;;;12.97;100.00
8717;BME280;4395;48.554;8.820;2023-05-11T08:23:08;95621.66;;;12.56;100.00
8717;BME280;4395;48.554;8.820;2023-05-11T08:25:19;95668.28;;;12.51;100.00
8717;BME280;4395;48.554;8.820;2023-05-11T08:27:22;95680.69;;;12.57;100.00
8717;BME280;4395;48.554;8.820;2023-05-11T08:29:25;95689.81;;;12.36;100.00
8717;BME280;4395;48.554;8.820;2023-05-11T08:31:29;95691.44;;;12.47;100.00
8717;BME280;4395;48.554;8.820;2023-05-11T08:33:32;95689.81;;;12.77;100.00
8717;BME280;4395;48.554;8.820;2023-05-11T08:35:39;95683.59;;;12.15;100.00
8717;BME280;4395;48.554;8.820;2023-05-11T08:37:42;95693.03;;;12.08;100.00
8717;BME280;4395;48.554;8.820;2023-05-11T08:39:46;95682.66;;;11.69;100.00
8717;BME280;4395;48.554;8.820;2023-05-11T08:41:50;95692.81;;;11.52;100.00
8717;BME280;4395;48.554;8.820;2023-05-11T08:43:56;95608.13;;;11.02;100.00
8717;BME280;4395;48.554;8.820;2023-05-11T08:46:02;95538.59;;;10.63;100.00
8717;BME280;4395;48.554;8.820;2023-05-11T08:48:06;95695.22;;;11.48;100.00
8717;BME280;4395;48.554;8.820;2023-05-11T08:50:09;95702.47;;;11.43;100.00
8717;BME280;4395;48.554;8.820;2023-05-11T08:52:13;95691.50;;;11.02;100.00
8717;BME280;4395;48.554;8.820;2023-05-11T08:54:18;95676.00;;;11.19;100.00
8717;BME280;4395;48.554;8.820;2023-05-11T08:56:21;95693.91;;;11.51;100.00
8717;BME280;4395;48.554;8.820;2023-05-11T08:58:29;95688.50;;;11.51;100.00
8717;BME280;4395;48.554;8.820;2023-05-11T09:00:33;95693.28;;;12.01;100.00
8717;BME280;4395;48.554;8.820;2023-05-11T09:02:37;95691.22;;;11.56;100.00
8717;BME280;4395;48.554;8.820;2023-05-11T09:04:41;95683.53;;;11.85;100.00
8717;BME280;4395;48.554;8.820;2023-05-11T09:06:48;95697.59;;;12.07;100.00
8717;BME280;4395;48.554;8.820;2023-05-11T09:08:52;95694.66;;;12.14;100.00
8717;BME280;4395;48.554;8.820;2023-05-11T09:10:55;95693.06;;;12.43;100.00
8717;BME280;4395;48.554;8.820;2023-05-11T09:12:59;95694.66;;;12.19;100.00
8717;BME280;4395;48.554;8.820;2023-05-11T09:15:04;95698.97;;;12.25;100.00
8717;BME280;4395;48.554;8.820;2023-05-11T09:17:08;95691.16;;;12.34;100.00
8717;BME280;4395;48.554;8.820;2023-05-11T09:19:13;95693.06;;;12.43;100.00
8717;BME280;4395;48.554;8.820;2023-05-11T09:21:18;95654.25;;;12.34;100.00
8717;BME280;4395;48.554;8.820;2023-05-11T09:23:24;95693.34;;;12.72;100.00
8717;BME280;4395;48.554;8.820;2023-05-11T09:25:29;95693.06;;;12.48;100.00
8717;BME280;4395;48.554;8.820;2023-05-11T09:27:39;95629.69;;;11.85;100.00
8717;BME280;4395;48.554;8.820;2023-05-11T09:29:43;95684.44;;;12.26;100.00
8717;BME280;4395;48.554;8.820;2023-05-11T09:31:55;95635.38;;;12.09;100.00
8717;BME280;4395;48.554;8.820;2023-05-11T09:34:08;95703.03;;;12.53;100.00
8717;BME280;4395;48.554;8.820;2023-05-11T09:36:22;95689.00;;;12.86;100.00
8717;BME280;4395;48.554;8.820;2023-05-11T09:38:25;95694.66;;;12.29;100.00
8717;BME280;4395;48.554;8.820;2023-05-11T09:40:30;95683.63;;;12.31;100.00
8717;BME280;4395;48.554;8.820;2023-05-11T09:42:35;95690.63;;;12.87;100.00
8717;BME280;4395;48.554;8.820;2023-05-11T09:44:39;95691.72;;;13.17;100.00
8717;BME280;4395;48.554;8.820;2023-05-11T09:46:44;95703.22;;;13.53;100.00
8717;BME280;4395;48.554;8.820;2023-05-11T09:48:57;95688.72;;;13.29;100.00
8717;BME280;4395;48.554;8.820;2023-05-11T09:51:02;95580.59;;;12.84;100.00
8717;BME280;4395;48.554;8.820;2023-05-11T09:53:05;95672.91;;;13.71;100.00
8717;BME280;4395;48.554;8.820;2023-05-11T09:55:09;95688.16;;;14.01;100.00
8717;BME280;4395;48.554;8.820;2023-05-11T09:57:22;95684.66;;;13.96;100.00
8717;BME280;4395;48.554;8.820;2023-05-11T09:59:37;95692.41;;;13.53;100.00
8717;BME280;4395;48.554;8.820;2023-05-11T10:01:40;95684.84;;;13.60;100.00
8717;BME280;4395;48.554;8.820;2023-05-11T10:03:49;95678.81;;;13.78;100.00
8717;BME280;4395;48.554;8.820;2023-05-11T10:06:08;95682.00;;;13.86;100.00
8717;BME280;4395;48.554;8.820;2023-05-11T10:08:11;95677.97;;;13.03;100.00
8717;BME280;4395;48.554;8.820;2023-05-11T10:10:14;95672.28;;;13.00;100.00
8717;BME280;4395;48.554;8.820;2023-05-11T10:12:21;95679.41;;;13.65;100.00
8717;BME280;4395;48.554;8.820;2023-05-11T10:14:26;95657.22;;;13.73;100.00
8717;BME280;4395;48.554;8.820;2023-05-11T10:16:30;95682.03;;;13.80;100.00
8717;BME280;4395;48.554;8.820;2023-05-11T10:18:35;95683.59;;;13.92;100.00
8717;BME280;4395;48.554;8.820;2023-05-11T10:20:39;95684.84;;;13.55;100.00
8717;BME280;4395;48.554;8.820;2023-05-11T10:22:44;95681.47;;;13.19;100.00
8717;BME280;4395;48.554;8.820;2023-05-11T10:24:49;95677.84;;;13.49;100.00
8717;BME280;4395;48.554;8.820;2023-05-11T10:26:53;95676.84;;;12.99;100.00
8717;BME280;4395;48.554;8.820;2023-05-11T10:28:59;95676.25;;;13.43;100.00
8717;BME280;4395;48.554;8.820;2023-05-11T10:31:03;95666.56;;;13.37;100.00
8717;BME280;4395;48.554;8.820;2023-05-11T10:33:07;95551.53;;;12.71;100.00
8717;BME280;4395;48.554;8.820;2023-05-11T10:35:10;95674.97;;;13.90;100.00
8717;BME280;4395;48.554;8.820;2023-05-11T10:37:14;95675.97;;;14.04;100.00
8717;BME280;4395;48.554;8.820;2023-05-11T10:39:19;95666.59;;;13.91;100.00
8717;BME280;4395;48.554;8.820;2023-05-11T10:41:44;95660.19;;;13.77;100.00
8717;BME280;4395;48.554;8.820;2023-05-11T10:44:02;95673.31;;;13.99;100.00
8717;BME280;4395;48.554;8.820;2023-05-11T10:46:19;95668.00;;;13.78;100.00
8717;BME280;4395;48.554;8.820;2023-05-11T10:51:28;95677.31;;;13.47;100.00
8717;BME280;4395;48.554;8.820;2023-05-11T10:53:53;95670.94;;;12.92;100.00
8717;BME280;4395;48.554;8.820;2023-05-11T10:56:32;95660.16;;;12.87;100.00
8717;BME280;4395;48.554;8.820;2023-05-11T10:59:05;95659.53;;;13.41;100.00
8717;BME280;4395;48.554;8.820;2023-05-11T11:01:35;95664.34;;;13.54;100.00
8717;BME280;4395;48.554;8.820;2023-05-11T11:03:40;95664.91;;;13.51;100.00
8717;BME280;4395;48.554;8.820;2023-05-11T11:05:43;95662.63;;;13.73;100.00
8717;BME280;4395;48.554;8.820;2023-05-11T11:07:58;95650.47;;;14.20;100.00
8717;BME280;4395;48.554;8.820;2023-05-11T11:10:05;95629.25;;;14.37;100.00
8717;BME280;4395;48.554;8.820;2023-05-11T11:12:11;95643.44;;;14.58;100.00
8717;BME280;4395;48.554;8.820;2023-05-11T11:14:16;95662.25;;;14.73;100.00
8717;BME280;4395;48.554;8.820;2023-05-11T11:16:20;95654.56;;;14.86;100.00
8717;BME280;4395;48.554;8.820;2023-05-11T11:18:26;95578.03;;;14.22;100.00